sensor_id;sensor_type;location;lat;lon;timestamp;P1;durP1;ratioP1;P2;durP2;ratioP2
20423;SDS011;10371;49.042;8.002;2023-12-28T00:00:39;25.17;;;18.40;;
20423;SDS011;10371;49.042;8.002;2023-12-28T00:01:39;25.03;;;19.77;;
20423;SDS011;10371;49.042;8.002;2023-12-28T00:02:39;22.00;;;16.80;;
20423;SDS011;10371;49.042;8.002;2023-12-28T00:03:40;17.23;;;14.77;;
20423;SDS011;10371;49.042;8.002;2023-12-28T00:04:41;16.27;;;13.20;;
20423;SDS011;10371;49.042;8.002;2023-12-28T00:05:41;13.47;;;10.87;;
20423;SDS011;10371;49.042;8.002;2023-12-28T00:06:41;9.60;;;8.70;;
20423;SDS011;10371;49.042;8.002;2023-12-28T00:07:42;8.40;;;7.60;;
20423;SDS011;10371;49.042;8.002;2023-12-28T00:08:42;7.47;;;6.70;;
20423;SDS011;10371;49.042;8.002;2023-12-28T00:09:42;8.40;;;7.60;;
20423;SDS011;10371;49.042;8.002;2023-12-28T00:10:43;8.70;;;7.80;;
20423;SDS011;10371;49.042;8.002;2023-12-28T00:11:43;8.30;;;7.50;;
20423;SDS011;10371;49.042;8.002;2023-12-28T00:12:43;7.97;;;7.27;;
20423;SDS011;10371;49.042;8.002;2023-12-28T00:13:43;8.37;;;7.57;;
20423;SDS011;10371;49.042;8.002;2023-12-28T00:14:44;8.10;;;7.30;;
20423;SDS011;10371;49.042;8.002;2023-12-28T00:15:44;7.93;;;7.23;;
20423;SDS011;10371;49.042;8.002;2023-12-28T00:16:44;8.80;;;7.90;;
20423;SDS011;10371;49.042;8.002;2023-12-28T00:17:45;8.47;;;7.67;;
20423;SDS011;10371;49.042;8.002;2023-12-28T00:18:45;8.43;;;7.60;;
20423;SDS011;10371;49.042;8.002;2023-12-28T00:19:46;8.90;;;7.17;;
20423;SDS011;10371;49.042;8.002;2023-12-28T00:20:46;6.90;;;6.30;;
20423;SDS011;10371;49.042;8.002;2023-12-28T00:21:46;8.80;;;6.90;;
20423;SDS011;10371;49.042;8.002;2023-12-28T00:22:46;7.67;;;6.93;;
20423;SDS011;10371;49.042;8.002;2023-12-28T00:23:47;7.63;;;6.90;;
20423;SDS011;10371;49.042;8.002;2023-12-28T00:24:47;7.43;;;6.67;;
20423;SDS011;10371;49.042;8.002;2023-12-28T00:25:47;8.23;;;6.87;;
20423;SDS011;10371;49.042;8.002;2023-12-28T00:26:47;7.90;;;7.10;;
20423;SDS011;10371;49.042;8.002;2023-12-28T00:27:48;7.50;;;6.70;;
20423;SDS011;10371;49.042;8.002;2023-12-28T00:28:49;7.43;;;6.30;;
20423;SDS011;10371;49.042;8.002;2023-12-28T00:29:49;6.87;;;6.20;;
20423;SDS011;10371;49.042;8.002;2023-12-28T00:30:49;8.27;;;6.23;;
20423;SDS011;10371;49.042;8.002;2023-12-28T00:31:49;8.53;;;6.37;;
20423;SDS011;10371;49.042;8.002;2023-12-28T00:32:50;7.40;;;6.67;;
20423;SDS011;10371;49.042;8.002;2023-12-28T00:33:50;7.53;;;6.43;;
20423;SDS011;10371;49.042;8.002;2023-12-28T00:34:50;7.13;;;6.53;;
20423;SDS011;10371;49.042;8.002;2023-12-28T00:35:51;6.87;;;6.20;;
20423;SDS011;10371;49.042;8.002;2023-12-28T00:36:51;6.70;;;6.00;;
20423;SDS011;10371;49.042;8.002;2023-12-28T00:37:51;6.63;;;6.03;;
20423;SDS011;10371;49.042;8.002;2023-12-28T00:38:52;6.10;;;5.57;;
20423;SDS011;10371;49.042;8.002;2023-12-28T00:39:52;6.40;;;5.90;;
20423;SDS011;10371;49.042;8.002;2023-12-28T00:40:52;6.20;;;5.70;;
20423;SDS011;10371;49.042;8.002;2023-12-28T00:41:53;5.90;;;5.30;;
20423;SDS011;10371;49.042;8.002;2023-12-28T00:42:53;6.77;;;6.10;;
20423;SDS011;10371;49.042;8.002;2023-12-28T00:43:53;6.07;;;5.33;;
20423;SDS011;10371;49.042;8.002;2023-12-28T00:44:53;6.33;;;5.73;;
20423;SDS011;10371;49.042;8.002;2023-12-28T00:45:54;6.37;;;5.70;;
20423;SDS011;10371;49.042;8.002;2023-12-28T00:46:54;5.90;;;5.37;;
20423;SDS011;10371;49.042;8.002;2023-12-28T00:47:54;6.20;;;5.60;;
20423;SDS011;10371;49.042;8.002;2023-12-28T00:48:56;6.23;;;5.63;;
20423;SDS011;10371;49.042;8.002;2023-12-28T00:49:57;6.53;;;5.90;;
20423;SDS011;10371;49.042;8.002;2023-12-28T00:50:57;6.40;;;5.80;;
20423;SDS011;10371;49.042;8.002;2023-12-28T00:51:59;5.97;;;5.40;;
20423;SDS011;10371;49.042;8.002;2023-12-28T00:52:59;6.20;;;5.60;;
20423;SDS011;10371;49.042;8.002;2023-12-28T00:53:59;6.27;;;5.67;;
20423;SDS011;10371;49.042;8.002;2023-12-28T00:54:59;7.00;;;5.77;;
20423;SDS011;10371;49.042;8.002;2023-12-28T00:56:00;6.43;;;5.50;;
20423;SDS011;10371;49.042;8.002;2023-12-28T00:57:00;7.43;;;5.63;;
20423;SDS011;10371;49.042;8.002;2023-12-28T00:58:00;7.03;;;6.33;;
20423;SDS011;10371;49.042;8.002;2023-12-28T00:59:00;6.60;;;6.00;;
20423;SDS011;10371;49.042;8.002;2023-12-28T01:00:02;6.47;;;5.83;;
20423;SDS011;10371;49.042;8.002;2023-12-28T01:01:03;6.03;;;5.43;;
20423;SDS011;10371;49.042;8.002;2023-12-28T01:02:03;6.33;;;5.30;;
20423;SDS011;10371;49.042;8.002;2023-12-28T01:03:04;5.80;;;5.30;;
20423;SDS011;10371;49.042;8.002;2023-12-28T01:04:04;6.57;;;5.97;;
20423;SDS011;10371;49.042;8.002;2023-12-28T01:05:04;5.70;;;5.20;;
20423;SDS011;10371;49.042;8.002;2023-12-28T01:06:05;6.23;;;5.70;;
20423;SDS011;10371;49.042;8.002;2023-12-28T01:07:05;6.70;;;6.10;;
20423;SDS011;10371;49.042;8.002;2023-12-28T01:08:06;7.77;;;6.43;;
20423;SDS011;10371;49.042;8.002;2023-12-28T01:09:06;8.07;;;6.60;;
20423;SDS011;10371;49.042;8.002;2023-12-28T01:10:07;7.23;;;6.50;;
20423;SDS011;10371;49.042;8.002;2023-12-28T01:11:07;7.47;;;6.73;;
20423;SDS011;10371;49.042;8.002;2023-12-28T01:12:08;7.40;;;6.43;;
20423;SDS011;10371;49.042;8.002;2023-12-28T01:13:08;7.53;;;6.70;;
20423;SDS011;10371;49.042;8.002;2023-12-28T01:14:09;7.80;;;7.00;;
20423;SDS011;10371;49.042;8.002;2023-12-28T01:15:09;7.87;;;7.10;;
20423;SDS011;10371;49.042;8.002;2023-12-28T01:16:12;7.73;;;7.00;;
20423;SDS011;10371;49.042;8.002;2023-12-28T01:17:12;8.63;;;6.90;;
20423;SDS011;10371;49.042;8.002;2023-12-28T01:18:13;7.67;;;6.87;;
20423;SDS011;10371;49.042;8.002;2023-12-28T01:19:13;7.50;;;6.80;;
20423;SDS011;10371;49.042;8.002;2023-12-28T01:20:13;8.63;;;7.07;;
20423;SDS011;10371;49.042;8.002;2023-12-28T01:21:14;8.83;;;6.67;;
20423;SDS011;10371;49.042;8.002;2023-12-28T01:22:14;7.30;;;6.30;;
20423;SDS011;10371;49.042;8.002;2023-12-28T01:23:14;6.50;;;5.90;;
20423;SDS011;10371;49.042;8.002;2023-12-28T01:24:14;6.87;;;6.17;;
20423;SDS011;10371;49.042;8.002;2023-12-28T01:25:15;6.57;;;5.87;;
20423;SDS011;10371;49.042;8.002;2023-12-28T01:26:15;6.20;;;5.60;;
20423;SDS011;10371;49.042;8.002;2023-12-28T01:27:17;6.23;;;5.73;;
20423;SDS011;10371;49.042;8.002;2023-12-28T01:28:18;6.27;;;5.67;;
20423;SDS011;10371;49.042;8.002;2023-12-28T01:29:18;6.17;;;5.57;;
20423;SDS011;10371;49.042;8.002;2023-12-28T01:30:19;6.10;;;5.50;;
20423;SDS011;10371;49.042;8.002;2023-12-28T01:31:19;6.33;;;5.37;;
20423;SDS011;10371;49.042;8.002;2023-12-28T01:32:19;6.50;;;5.80;;
20423;SDS011;10371;49.042;8.002;2023-12-28T01:33:19;7.30;;;6.23;;
20423;SDS011;10371;49.042;8.002;2023-12-28T01:34:20;7.73;;;6.50;;
20423;SDS011;10371;49.042;8.002;2023-12-28T01:35:20;7.00;;;6.40;;
20423;SDS011;10371;49.042;8.002;2023-12-28T01:36:21;6.93;;;6.23;;
20423;SDS011;10371;49.042;8.002;2023-12-28T01:37:22;6.90;;;6.20;;
20423;SDS011;10371;49.042;8.002;2023-12-28T01:38:23;8.07;;;7.27;;
20423;SDS011;10371;49.042;8.002;2023-12-28T01:39:23;7.50;;;6.80;;
20423;SDS011;10371;49.042;8.002;2023-12-28T01:40:23;7.33;;;6.63;;
20423;SDS011;10371;49.042;8.002;2023-12-28T01:41:24;8.13;;;7.30;;
20423;SDS011;10371;49.042;8.002;2023-12-28T01:42:24;7.60;;;6.73;;
20423;SDS011;10371;49.042;8.002;2023-12-28T01:43:24;6.93;;;6.23;;
20423;SDS011;10371;49.042;8.002;2023-12-28T01:44:25;6.53;;;5.93;;
20423;SDS011;10371;49.042;8.002;2023-12-28T01:45:25;6.27;;;5.77;;
20423;SDS011;10371;49.042;8.002;2023-12-28T01:46:25;6.17;;;5.57;;
20423;SDS011;10371;49.042;8.002;2023-12-28T01:47:26;5.77;;;5.27;;
20423;SDS011;10371;49.042;8.002;2023-12-28T01:48:27;6.17;;;5.57;;
20423;SDS011;10371;49.042;8.002;2023-12-28T01:49:28;6.77;;;6.17;;
20423;SDS011;10371;49.042;8.002;2023-12-28T01:50:28;6.30;;;5.70;;
20423;SDS011;10371;49.042;8.002;2023-12-28T01:51:31;6.50;;;5.90;;
20423;SDS011;10371;49.042;8.002;2023-12-28T01:52:32;6.17;;;5.57;;
20423;SDS011;10371;49.042;8.002;2023-12-28T01:53:33;5.73;;;5.20;;
20423;SDS011;10371;49.042;8.002;2023-12-28T01:54:34;6.57;;;5.97;;
20423;SDS011;10371;49.042;8.002;2023-12-28T01:55:36;6.90;;;6.00;;
20423;SDS011;10371;49.042;8.002;2023-12-28T01:56:36;6.70;;;5.90;;
20423;SDS011;10371;49.042;8.002;2023-12-28T01:57:38;6.93;;;6.23;;
20423;SDS011;10371;49.042;8.002;2023-12-28T01:58:38;6.80;;;6.20;;
20423;SDS011;10371;49.042;8.002;2023-12-28T01:59:41;6.40;;;5.80;;
20423;SDS011;10371;49.042;8.002;2023-12-28T02:00:41;7.20;;;6.50;;
20423;SDS011;10371;49.042;8.002;2023-12-28T02:01:42;7.03;;;6.27;;
20423;SDS011;10371;49.042;8.002;2023-12-28T02:02:43;6.67;;;6.07;;
20423;SDS011;10371;49.042;8.002;2023-12-28T02:03:45;6.73;;;6.03;;
20423;SDS011;10371;49.042;8.002;2023-12-28T02:04:45;6.60;;;5.90;;
20423;SDS011;10371;49.042;8.002;2023-12-28T02:05:46;6.97;;;6.37;;
20423;SDS011;10371;49.042;8.002;2023-12-28T02:06:46;6.73;;;6.13;;
20423;SDS011;10371;49.042;8.002;2023-12-28T02:07:46;6.83;;;6.20;;
20423;SDS011;10371;49.042;8.002;2023-12-28T02:08:47;5.90;;;5.40;;
20423;SDS011;10371;49.042;8.002;2023-12-28T02:09:47;6.70;;;6.00;;
20423;SDS011;10371;49.042;8.002;2023-12-28T02:10:47;6.07;;;5.57;;
20423;SDS011;10371;49.042;8.002;2023-12-28T02:11:48;6.43;;;5.70;;
20423;SDS011;10371;49.042;8.002;2023-12-28T02:12:48;7.13;;;6.27;;
20423;SDS011;10371;49.042;8.002;2023-12-28T02:13:49;6.40;;;5.77;;
20423;SDS011;10371;49.042;8.002;2023-12-28T02:14:50;6.23;;;5.63;;
20423;SDS011;10371;49.042;8.002;2023-12-28T02:15:52;6.10;;;5.50;;
20423;SDS011;10371;49.042;8.002;2023-12-28T02:18:02;5.80;;;5.23;;
20423;SDS011;10371;49.042;8.002;2023-12-28T02:18:48;6.20;;;5.40;;
20423;SDS011;10371;49.042;8.002;2023-12-28T02:19:51;5.53;;;5.03;;
20423;SDS011;10371;49.042;8.002;2023-12-28T02:20:54;5.60;;;5.10;;
20423;SDS011;10371;49.042;8.002;2023-12-28T02:21:54;5.80;;;5.23;;
20423;SDS011;10371;49.042;8.002;2023-12-28T02:22:55;5.33;;;4.83;;
20423;SDS011;10371;49.042;8.002;2023-12-28T02:23:56;5.53;;;5.00;;
20423;SDS011;10371;49.042;8.002;2023-12-28T02:26:19;6.33;;;5.10;;
20423;SDS011;10371;49.042;8.002;2023-12-28T02:27:19;6.07;;;5.47;;
20423;SDS011;10371;49.042;8.002;2023-12-28T02:28:19;6.33;;;5.03;;
20423;SDS011;10371;49.042;8.002;2023-12-28T02:29:20;5.90;;;5.40;;
20423;SDS011;10371;49.042;8.002;2023-12-28T02:30:21;6.47;;;5.90;;
20423;SDS011;10371;49.042;8.002;2023-12-28T02:31:27;7.90;;;7.10;;
20423;SDS011;10371;49.042;8.002;2023-12-28T02:34:06;6.80;;;6.10;;
20423;SDS011;10371;49.042;8.002;2023-12-28T02:36:31;5.90;;;5.30;;
20423;SDS011;10371;49.042;8.002;2023-12-28T02:37:33;5.77;;;4.97;;
20423;SDS011;10371;49.042;8.002;2023-12-28T02:38:36;5.43;;;4.83;;
20423;SDS011;10371;49.042;8.002;2023-12-28T02:39:37;5.37;;;4.37;;
20423;SDS011;10371;49.042;8.002;2023-12-28T02:40:40;5.00;;;4.50;;
20423;SDS011;10371;49.042;8.002;2023-12-28T02:41:42;5.07;;;4.60;;
20423;SDS011;10371;49.042;8.002;2023-12-28T02:42:44;4.90;;;4.50;;
20423;SDS011;10371;49.042;8.002;2023-12-28T02:43:44;4.97;;;4.47;;
20423;SDS011;10371;49.042;8.002;2023-12-28T02:44:44;5.20;;;4.40;;
20423;SDS011;10371;49.042;8.002;2023-12-28T02:45:44;4.90;;;4.20;;
20423;SDS011;10371;49.042;8.002;2023-12-28T02:46:45;4.30;;;3.90;;
20423;SDS011;10371;49.042;8.002;2023-12-28T02:47:45;4.60;;;4.20;;
20423;SDS011;10371;49.042;8.002;2023-12-28T02:48:46;4.67;;;4.10;;
20423;SDS011;10371;49.042;8.002;2023-12-28T02:49:46;4.63;;;4.17;;
20423;SDS011;10371;49.042;8.002;2023-12-28T02:50:46;3.97;;;3.60;;
20423;SDS011;10371;49.042;8.002;2023-12-28T02:51:47;5.33;;;4.00;;
20423;SDS011;10371;49.042;8.002;2023-12-28T02:52:47;4.07;;;3.77;;
20423;SDS011;10371;49.042;8.002;2023-12-28T02:53:47;4.57;;;4.13;;
20423;SDS011;10371;49.042;8.002;2023-12-28T02:54:47;4.20;;;3.80;;
20423;SDS011;10371;49.042;8.002;2023-12-28T02:55:48;5.17;;;4.10;;
20423;SDS011;10371;49.042;8.002;2023-12-28T02:56:48;4.63;;;4.17;;
20423;SDS011;10371;49.042;8.002;2023-12-28T02:57:52;3.67;;;3.37;;
20423;SDS011;10371;49.042;8.002;2023-12-28T02:58:54;4.00;;;3.60;;
20423;SDS011;10371;49.042;8.002;2023-12-28T02:59:55;5.03;;;3.80;;
20423;SDS011;10371;49.042;8.002;2023-12-28T03:00:56;3.80;;;3.47;;
20423;SDS011;10371;49.042;8.002;2023-12-28T03:01:57;3.50;;;3.20;;
20423;SDS011;10371;49.042;8.002;2023-12-28T03:02:57;3.60;;;3.20;;
20423;SDS011;10371;49.042;8.002;2023-12-28T03:03:57;4.33;;;3.13;;
20423;SDS011;10371;49.042;8.002;2023-12-28T03:04:57;3.30;;;3.00;;
20423;SDS011;10371;49.042;8.002;2023-12-28T03:05:58;4.90;;;2.93;;
20423;SDS011;10371;49.042;8.002;2023-12-28T03:06:58;3.17;;;2.87;;
20423;SDS011;10371;49.042;8.002;2023-12-28T03:07:59;3.13;;;2.83;;
20423;SDS011;10371;49.042;8.002;2023-12-28T03:08:59;3.00;;;2.70;;
20423;SDS011;10371;49.042;8.002;2023-12-28T03:10:00;3.40;;;2.60;;
20423;SDS011;10371;49.042;8.002;2023-12-28T03:11:00;2.80;;;2.57;;
20423;SDS011;10371;49.042;8.002;2023-12-28T03:12:01;2.90;;;2.60;;
20423;SDS011;10371;49.042;8.002;2023-12-28T03:13:01;3.07;;;2.60;;
20423;SDS011;10371;49.042;8.002;2023-12-28T03:14:01;3.30;;;2.70;;
20423;SDS011;10371;49.042;8.002;2023-12-28T03:15:02;2.90;;;2.63;;
20423;SDS011;10371;49.042;8.002;2023-12-28T03:16:02;5.83;;;2.80;;
20423;SDS011;10371;49.042;8.002;2023-12-28T03:17:03;3.13;;;2.33;;
20423;SDS011;10371;49.042;8.002;2023-12-28T03:18:03;3.30;;;2.90;;
20423;SDS011;10371;49.042;8.002;2023-12-28T03:19:04;2.43;;;2.20;;
20423;SDS011;10371;49.042;8.002;2023-12-28T03:20:04;2.50;;;2.30;;
20423;SDS011;10371;49.042;8.002;2023-12-28T03:21:05;2.60;;;2.40;;
20423;SDS011;10371;49.042;8.002;2023-12-28T03:22:05;3.27;;;2.60;;
20423;SDS011;10371;49.042;8.002;2023-12-28T03:23:06;2.90;;;2.70;;
20423;SDS011;10371;49.042;8.002;2023-12-28T03:24:06;2.87;;;2.53;;
20423;SDS011;10371;49.042;8.002;2023-12-28T03:25:06;2.70;;;2.50;;
20423;SDS011;10371;49.042;8.002;2023-12-28T03:26:07;3.07;;;2.77;;
20423;SDS011;10371;49.042;8.002;2023-12-28T03:27:07;2.80;;;2.50;;
20423;SDS011;10371;49.042;8.002;2023-12-28T03:28:07;3.93;;;2.50;;
20423;SDS011;10371;49.042;8.002;2023-12-28T03:29:08;2.97;;;2.67;;
20423;SDS011;10371;49.042;8.002;2023-12-28T03:30:08;2.73;;;2.40;;
20423;SDS011;10371;49.042;8.002;2023-12-28T03:31:09;5.33;;;2.33;;
20423;SDS011;10371;49.042;8.002;2023-12-28T03:32:09;2.80;;;2.30;;
20423;SDS011;10371;49.042;8.002;2023-12-28T03:33:10;2.80;;;2.30;;
20423;SDS011;10371;49.042;8.002;2023-12-28T03:34:10;2.50;;;2.30;;
20423;SDS011;10371;49.042;8.002;2023-12-28T03:35:10;3.93;;;2.53;;
20423;SDS011;10371;49.042;8.002;2023-12-28T03:36:17;2.60;;;2.40;;
20423;SDS011;10371;49.042;8.002;2023-12-28T03:37:20;2.43;;;2.13;;
20423;SDS011;10371;49.042;8.002;2023-12-28T03:38:21;2.90;;;2.70;;
20423;SDS011;10371;49.042;8.002;2023-12-28T03:39:21;3.50;;;2.47;;
20423;SDS011;10371;49.042;8.002;2023-12-28T03:40:21;3.27;;;2.20;;
20423;SDS011;10371;49.042;8.002;2023-12-28T03:41:22;2.83;;;2.37;;
20423;SDS011;10371;49.042;8.002;2023-12-28T03:42:22;2.77;;;2.53;;
20423;SDS011;10371;49.042;8.002;2023-12-28T03:43:22;4.13;;;2.30;;
20423;SDS011;10371;49.042;8.002;2023-12-28T03:44:23;2.03;;;1.93;;
20423;SDS011;10371;49.042;8.002;2023-12-28T03:45:23;3.10;;;2.40;;
20423;SDS011;10371;49.042;8.002;2023-12-28T03:46:23;2.43;;;2.23;;
20423;SDS011;10371;49.042;8.002;2023-12-28T03:47:23;2.60;;;2.40;;
20423;SDS011;10371;49.042;8.002;2023-12-28T03:48:24;2.83;;;2.20;;
20423;SDS011;10371;49.042;8.002;2023-12-28T03:49:24;2.87;;;2.30;;
20423;SDS011;10371;49.042;8.002;2023-12-28T03:50:24;2.60;;;2.40;;
20423;SDS011;10371;49.042;8.002;2023-12-28T03:51:24;2.57;;;2.37;;
20423;SDS011;10371;49.042;8.002;2023-12-28T03:52:27;2.50;;;2.03;;
20423;SDS011;10371;49.042;8.002;2023-12-28T03:53:31;2.50;;;2.30;;
20423;SDS011;10371;49.042;8.002;2023-12-28T03:54:31;2.67;;;2.30;;
20423;SDS011;10371;49.042;8.002;2023-12-28T03:55:32;2.30;;;2.10;;
20423;SDS011;10371;49.042;8.002;2023-12-28T03:56:32;2.43;;;2.20;;
20423;SDS011;10371;49.042;8.002;2023-12-28T03:57:35;2.30;;;2.10;;
20423;SDS011;10371;49.042;8.002;2023-12-28T03:58:35;2.50;;;2.30;;
20423;SDS011;10371;49.042;8.002;2023-12-28T03:59:36;2.40;;;1.93;;
20423;SDS011;10371;49.042;8.002;2023-12-28T04:00:36;2.83;;;2.40;;
20423;SDS011;10371;49.042;8.002;2023-12-28T04:01:36;2.53;;;1.90;;
20423;SDS011;10371;49.042;8.002;2023-12-28T04:02:36;2.40;;;2.20;;
20423;SDS011;10371;49.042;8.002;2023-12-28T04:03:37;2.23;;;2.03;;
20423;SDS011;10371;49.042;8.002;2023-12-28T04:04:37;2.60;;;2.40;;
20423;SDS011;10371;49.042;8.002;2023-12-28T04:05:37;2.30;;;2.10;;
20423;SDS011;10371;49.042;8.002;2023-12-28T04:06:37;2.40;;;2.20;;
20423;SDS011;10371;49.042;8.002;2023-12-28T04:07:38;3.03;;;2.70;;
20423;SDS011;10371;49.042;8.002;2023-12-28T04:08:39;2.60;;;2.40;;
20423;SDS011;10371;49.042;8.002;2023-12-28T04:09:39;2.30;;;2.10;;
20423;SDS011;10371;49.042;8.002;2023-12-28T04:10:39;3.00;;;2.13;;
20423;SDS011;10371;49.042;8.002;2023-12-28T04:11:40;2.85;;;2.22;;
20423;SDS011;10371;49.042;8.002;2023-12-28T04:12:40;2.97;;;2.40;;
20423;SDS011;10371;49.042;8.002;2023-12-28T04:13:40;2.57;;;2.20;;
20423;SDS011;10371;49.042;8.002;2023-12-28T04:14:41;3.58;;;2.10;;
20423;SDS011;10371;49.042;8.002;2023-12-28T04:15:41;2.23;;;2.03;;
20423;SDS011;10371;49.042;8.002;2023-12-28T04:16:43;2.93;;;2.33;;
20423;SDS011;10371;49.042;8.002;2023-12-28T04:17:43;3.33;;;2.27;;
20423;SDS011;10371;49.042;8.002;2023-12-28T04:18:43;2.30;;;2.00;;
20423;SDS011;10371;49.042;8.002;2023-12-28T04:19:44;2.20;;;2.00;;
20423;SDS011;10371;49.042;8.002;2023-12-28T04:20:44;2.73;;;2.27;;
20423;SDS011;10371;49.042;8.002;2023-12-28T04:21:45;2.50;;;2.10;;
20423;SDS011;10371;49.042;8.002;2023-12-28T04:22:45;2.20;;;2.00;;
20423;SDS011;10371;49.042;8.002;2023-12-28T04:23:45;2.30;;;2.10;;
20423;SDS011;10371;49.042;8.002;2023-12-28T04:24:45;3.03;;;2.13;;
20423;SDS011;10371;49.042;8.002;2023-12-28T04:25:46;2.37;;;2.17;;
20423;SDS011;10371;49.042;8.002;2023-12-28T04:26:46;2.63;;;2.42;;
20423;SDS011;10371;49.042;8.002;2023-12-28T04:27:46;2.50;;;2.30;;
20423;SDS011;10371;49.042;8.002;2023-12-28T04:28:47;2.47;;;2.27;;
20423;SDS011;10371;49.042;8.002;2023-12-28T04:29:47;2.17;;;2.07;;
20423;SDS011;10371;49.042;8.002;2023-12-28T04:30:48;2.47;;;2.28;;
20423;SDS011;10371;49.042;8.002;2023-12-28T04:31:48;2.30;;;2.10;;
20423;SDS011;10371;49.042;8.002;2023-12-28T04:32:48;2.53;;;2.23;;
20423;SDS011;10371;49.042;8.002;2023-12-28T04:33:49;2.77;;;2.23;;
20423;SDS011;10371;49.042;8.002;2023-12-28T04:34:49;3.40;;;2.30;;
20423;SDS011;10371;49.042;8.002;2023-12-28T04:35:49;2.80;;;2.20;;
20423;SDS011;10371;49.042;8.002;2023-12-28T04:36:50;3.53;;;2.70;;
20423;SDS011;10371;49.042;8.002;2023-12-28T04:37:52;2.90;;;2.20;;
20423;SDS011;10371;49.042;8.002;2023-12-28T04:38:52;2.17;;;1.97;;
20423;SDS011;10371;49.042;8.002;2023-12-28T04:39:53;2.53;;;2.30;;
20423;SDS011;10371;49.042;8.002;2023-12-28T04:40:54;2.37;;;1.90;;
20423;SDS011;10371;49.042;8.002;2023-12-28T04:41:54;3.47;;;2.30;;
20423;SDS011;10371;49.042;8.002;2023-12-28T04:42:54;2.40;;;2.20;;
20423;SDS011;10371;49.042;8.002;2023-12-28T04:43:54;2.10;;;2.00;;
20423;SDS011;10371;49.042;8.002;2023-12-28T04:44:55;3.60;;;2.30;;
20423;SDS011;10371;49.042;8.002;2023-12-28T04:45:55;2.60;;;2.20;;
20423;SDS011;10371;49.042;8.002;2023-12-28T04:46:55;2.75;;;2.40;;
20423;SDS011;10371;49.042;8.002;2023-12-28T04:47:56;2.93;;;2.10;;
20423;SDS011;10371;49.042;8.002;2023-12-28T04:48:56;3.40;;;2.80;;
20423;SDS011;10371;49.042;8.002;2023-12-28T04:49:56;3.03;;;2.50;;
20423;SDS011;10371;49.042;8.002;2023-12-28T04:50:56;2.63;;;2.42;;
20423;SDS011;10371;49.042;8.002;2023-12-28T04:51:57;3.50;;;2.60;;
20423;SDS011;10371;49.042;8.002;2023-12-28T04:52:57;3.23;;;2.67;;
20423;SDS011;10371;49.042;8.002;2023-12-28T04:53:57;3.33;;;2.53;;
20423;SDS011;10371;49.042;8.002;2023-12-28T04:54:58;2.30;;;2.15;;
20423;SDS011;10371;49.042;8.002;2023-12-28T04:55:58;3.15;;;2.35;;
20423;SDS011;10371;49.042;8.002;2023-12-28T04:56:59;3.55;;;2.50;;
20423;SDS011;10371;49.042;8.002;2023-12-28T04:57:59;3.20;;;2.90;;
20423;SDS011;10371;49.042;8.002;2023-12-28T04:59:00;3.23;;;2.70;;
20423;SDS011;10371;49.042;8.002;2023-12-28T05:00:00;3.00;;;2.70;;
20423;SDS011;10371;49.042;8.002;2023-12-28T05:01:01;3.47;;;2.70;;
20423;SDS011;10371;49.042;8.002;2023-12-28T05:02:02;3.17;;;2.87;;
20423;SDS011;10371;49.042;8.002;2023-12-28T05:03:03;3.43;;;2.63;;
20423;SDS011;10371;49.042;8.002;2023-12-28T05:04:03;3.23;;;2.93;;
20423;SDS011;10371;49.042;8.002;2023-12-28T05:05:03;3.58;;;3.03;;
20423;SDS011;10371;49.042;8.002;2023-12-28T05:06:04;3.93;;;2.60;;
20423;SDS011;10371;49.042;8.002;2023-12-28T05:07:04;3.00;;;2.70;;
20423;SDS011;10371;49.042;8.002;2023-12-28T05:08:05;4.30;;;2.50;;
20423;SDS011;10371;49.042;8.002;2023-12-28T05:09:05;3.23;;;2.93;;
20423;SDS011;10371;49.042;8.002;2023-12-28T05:10:06;3.33;;;2.63;;
20423;SDS011;10371;49.042;8.002;2023-12-28T05:11:06;2.80;;;2.60;;
20423;SDS011;10371;49.042;8.002;2023-12-28T05:12:07;3.20;;;2.47;;
20423;SDS011;10371;49.042;8.002;2023-12-28T05:13:07;2.60;;;2.30;;
20423;SDS011;10371;49.042;8.002;2023-12-28T05:14:07;2.70;;;2.50;;
20423;SDS011;10371;49.042;8.002;2023-12-28T05:15:08;2.50;;;2.30;;
20423;SDS011;10371;49.042;8.002;2023-12-28T05:16:08;3.10;;;2.30;;
20423;SDS011;10371;49.042;8.002;2023-12-28T05:17:09;2.50;;;2.30;;
20423;SDS011;10371;49.042;8.002;2023-12-28T05:18:09;3.20;;;2.83;;
20423;SDS011;10371;49.042;8.002;2023-12-28T05:19:09;3.63;;;2.40;;
20423;SDS011;10371;49.042;8.002;2023-12-28T05:20:10;2.93;;;2.63;;
20423;SDS011;10371;49.042;8.002;2023-12-28T05:21:10;2.90;;;2.50;;
20423;SDS011;10371;49.042;8.002;2023-12-28T05:22:12;2.43;;;2.23;;
20423;SDS011;10371;49.042;8.002;2023-12-28T05:23:12;3.30;;;2.40;;
20423;SDS011;10371;49.042;8.002;2023-12-28T05:24:13;3.23;;;2.73;;
20423;SDS011;10371;49.042;8.002;2023-12-28T05:25:13;3.37;;;2.30;;
20423;SDS011;10371;49.042;8.002;2023-12-28T05:26:14;2.90;;;2.27;;
20423;SDS011;10371;49.042;8.002;2023-12-28T05:27:14;2.27;;;2.07;;
20423;SDS011;10371;49.042;8.002;2023-12-28T05:28:14;2.60;;;2.28;;
20423;SDS011;10371;49.042;8.002;2023-12-28T05:29:14;2.10;;;2.00;;
20423;SDS011;10371;49.042;8.002;2023-12-28T05:30:15;2.37;;;2.17;;
20423;SDS011;10371;49.042;8.002;2023-12-28T05:31:15;3.03;;;2.13;;
20423;SDS011;10371;49.042;8.002;2023-12-28T05:32:15;2.57;;;2.20;;
20423;SDS011;10371;49.042;8.002;2023-12-28T05:33:15;2.17;;;1.87;;
20423;SDS011;10371;49.042;8.002;2023-12-28T05:34:16;3.43;;;2.13;;
20423;SDS011;10371;49.042;8.002;2023-12-28T05:35:16;2.22;;;2.10;;
20423;SDS011;10371;49.042;8.002;2023-12-28T05:36:16;2.33;;;2.13;;
20423;SDS011;10371;49.042;8.002;2023-12-28T05:37:17;2.87;;;2.10;;
20423;SDS011;10371;49.042;8.002;2023-12-28T05:38:17;3.13;;;2.23;;
20423;SDS011;10371;49.042;8.002;2023-12-28T05:39:17;2.55;;;2.05;;
20423;SDS011;10371;49.042;8.002;2023-12-28T05:40:18;2.57;;;2.10;;
20423;SDS011;10371;49.042;8.002;2023-12-28T05:41:18;3.43;;;1.90;;
20423;SDS011;10371;49.042;8.002;2023-12-28T05:42:18;2.45;;;1.92;;
20423;SDS011;10371;49.042;8.002;2023-12-28T05:43:19;3.75;;;2.28;;
20423;SDS011;10371;49.042;8.002;2023-12-28T05:44:19;2.45;;;2.25;;
20423;SDS011;10371;49.042;8.002;2023-12-28T05:45:20;3.47;;;2.20;;
20423;SDS011;10371;49.042;8.002;2023-12-28T05:46:21;2.30;;;2.10;;
20423;SDS011;10371;49.042;8.002;2023-12-28T05:47:21;2.30;;;2.10;;
20423;SDS011;10371;49.042;8.002;2023-12-28T05:48:21;3.77;;;2.10;;
20423;SDS011;10371;49.042;8.002;2023-12-28T05:49:22;2.67;;;2.00;;
20423;SDS011;10371;49.042;8.002;2023-12-28T05:50:22;2.97;;;2.15;;
20423;SDS011;10371;49.042;8.002;2023-12-28T05:51:22;3.03;;;1.90;;
20423;SDS011;10371;49.042;8.002;2023-12-28T05:52:22;2.87;;;2.30;;
20423;SDS011;10371;49.042;8.002;2023-12-28T05:53:23;2.15;;;1.98;;
20423;SDS011;10371;49.042;8.002;2023-12-28T05:54:24;3.20;;;2.00;;
20423;SDS011;10371;49.042;8.002;2023-12-28T05:55:24;3.33;;;2.30;;
20423;SDS011;10371;49.042;8.002;2023-12-28T05:56:25;3.03;;;2.30;;
20423;SDS011;10371;49.042;8.002;2023-12-28T05:57:25;2.60;;;2.40;;
20423;SDS011;10371;49.042;8.002;2023-12-28T05:58:29;3.33;;;2.10;;
20423;SDS011;10371;49.042;8.002;2023-12-28T05:59:30;3.60;;;2.13;;
20423;SDS011;10371;49.042;8.002;2023-12-28T06:00:30;2.70;;;2.10;;
20423;SDS011;10371;49.042;8.002;2023-12-28T06:01:30;3.23;;;1.90;;
20423;SDS011;10371;49.042;8.002;2023-12-28T06:02:30;1.98;;;1.88;;
20423;SDS011;10371;49.042;8.002;2023-12-28T06:03:31;2.20;;;1.80;;
20423;SDS011;10371;49.042;8.002;2023-12-28T06:04:31;2.97;;;2.00;;
20423;SDS011;10371;49.042;8.002;2023-12-28T06:05:33;3.83;;;2.37;;
20423;SDS011;10371;49.042;8.002;2023-12-28T06:06:33;3.10;;;2.30;;
20423;SDS011;10371;49.042;8.002;2023-12-28T06:07:34;2.87;;;2.17;;
20423;SDS011;10371;49.042;8.002;2023-12-28T06:08:34;2.80;;;2.30;;
20423;SDS011;10371;49.042;8.002;2023-12-28T06:09:34;2.67;;;2.33;;
20423;SDS011;10371;49.042;8.002;2023-12-28T06:10:36;2.63;;;2.30;;